createdAt,value
2022-10-08T00:02:01.324Z,7.60
2022-10-08T00:05:04.584Z,8.48
2022-10-08T00:08:09.857Z,8.98
2022-10-08T00:11:16.405Z,10.05
2022-10-08T00:14:19.215Z,6.80
2022-10-08T00:17:22.022Z,6.75
2022-10-08T00:20:24.859Z,8.88
2022-10-08T00:23:28.997Z,9.98
2022-10-08T00:26:33.362Z,9.40
2022-10-08T00:29:36.646Z,6.78
2022-10-08T00:32:39.561Z,8.07
2022-10-08T00:35:42.331Z,6.45
2022-10-08T00:38:46.537Z,8.50
2022-10-08T00:41:52.564Z,7.95
2022-10-08T00:44:58.283Z,6.15
2022-10-08T00:48:01.166Z,7.43
2022-10-08T00:51:04.026Z,6.47
2022-10-08T00:54:08.928Z,5.82
2022-10-08T00:57:12.133Z,7.63
2022-10-08T01:00:17.895Z,6.70
2022-10-08T01:03:20.744Z,6.10
2022-10-08T01:06:29.058Z,5.70
2022-10-08T01:09:39.887Z,7.43
2022-10-08T01:12:52.320Z,7.30
2022-10-08T01:16:02.056Z,7.93
2022-10-08T01:19:32.963Z,8.77
2022-10-08T01:22:54.336Z,6.65
2022-10-08T01:26:08.549Z,5.90
2022-10-08T01:29:17.256Z,5.82
2022-10-08T01:32:23.968Z,4.97
2022-10-08T01:35:31.198Z,6.55
2022-10-08T01:38:36.765Z,7.82
2022-10-08T01:41:40.791Z,6.82
2022-10-08T01:44:49.149Z,6.53
2022-10-08T01:47:52.899Z,5.60
2022-10-08T01:51:03.007Z,5.05
2022-10-08T01:54:10.468Z,5.13
2022-10-08T01:57:13.805Z,6.32
2022-10-08T02:00:18.834Z,6.28
2022-10-08T02:03:21.625Z,5.80
2022-10-08T02:06:24.557Z,6.15
2022-10-08T02:09:29.196Z,6.30
2022-10-08T02:12:32.097Z,5.32
2022-10-08T02:15:45.448Z,5.30
2022-10-08T02:18:56.356Z,5.50
2022-10-08T02:22:01.424Z,5.68
2022-10-08T02:25:14.120Z,6.68
2022-10-08T02:28:24.407Z,6.53
2022-10-08T02:31:35.993Z,6.43
2022-10-08T02:34:42.623Z,5.93
2022-10-08T02:37:50.369Z,4.85
2022-10-08T02:40:55.963Z,5.90
2022-10-08T02:44:03.035Z,5.70
2022-10-08T02:47:11.366Z,5.38
2022-10-08T02:50:21.540Z,5.50
2022-10-08T02:53:26.418Z,6.55
2022-10-08T02:56:34.865Z,8.00
2022-10-08T02:59:38.397Z,6.18
2022-10-08T03:02:53.247Z,5.95
2022-10-08T03:05:57.841Z,5.93
2022-10-08T03:09:02.724Z,5.20
2022-10-08T03:12:06.820Z,10.00
2022-10-08T03:15:12.103Z,5.10
2022-10-08T03:18:16.779Z,4.57
2022-10-08T03:21:20.269Z,7.00
2022-10-08T03:24:23.384Z,7.55
2022-10-08T03:27:26.292Z,5.43
2022-10-08T03:30:29.107Z,4.65
2022-10-08T03:33:33.461Z,4.95
2022-10-08T03:36:36.232Z,9.50
2022-10-08T03:39:39.005Z,4.90
2022-10-08T03:42:41.877Z,5.57
2022-10-08T03:45:51.236Z,5.10
2022-10-08T03:48:55.460Z,4.15
2022-10-08T03:51:58.339Z,4.30
2022-10-08T03:55:01.148Z,5.15
2022-10-08T03:58:03.972Z,4.70
2022-10-08T04:01:08.812Z,6.32
2022-10-08T04:04:13.016Z,5.97
2022-10-08T04:07:15.823Z,5.65
2022-10-08T04:10:18.671Z,4.72
2022-10-08T04:13:21.813Z,5.63
2022-10-08T04:16:24.663Z,4.72
2022-10-08T04:19:28.921Z,5.13
2022-10-08T04:22:31.746Z,5.75
2022-10-08T04:25:36.316Z,5.18
2022-10-08T04:28:40.733Z,4.80
2022-10-08T04:31:43.572Z,4.82
2022-10-08T04:34:47.844Z,5.25
2022-10-08T04:37:50.651Z,4.22
2022-10-08T04:41:03.093Z,5.18
2022-10-08T04:44:05.947Z,7.82
2022-10-08T04:47:08.845Z,4.72
2022-10-08T04:50:13.216Z,5.43
2022-10-08T04:53:16.101Z,5.28
2022-10-08T04:56:20.981Z,3.92
2022-10-08T04:59:23.805Z,5.50
2022-10-08T05:02:26.615Z,5.00
2022-10-08T05:05:30.856Z,3.60
2022-10-08T05:08:34.364Z,4.32
2022-10-08T05:11:37.134Z,5.47
2022-10-08T05:14:39.925Z,3.42
2022-10-08T05:17:42.863Z,3.72
2022-10-08T05:20:47.088Z,4.03
2022-10-08T05:23:55.123Z,9.65
2022-10-08T05:26:59.105Z,5.40
2022-10-08T05:30:03.241Z,5.10
2022-10-08T05:33:06.105Z,3.65
2022-10-08T05:36:19.634Z,4.10
2022-10-08T05:39:22.417Z,4.50
2022-10-08T05:42:25.271Z,4.40
2022-10-08T05:45:28.077Z,4.38
2022-10-08T05:48:30.935Z,4.40
2022-10-08T05:51:36.161Z,4.72
2022-10-08T05:54:38.954Z,3.95
2022-10-08T05:57:41.741Z,4.50
2022-10-08T06:00:44.629Z,4.30
2022-10-08T06:03:50.270Z,4.50
2022-10-08T06:06:54.435Z,3.75
2022-10-08T06:09:57.188Z,3.45
2022-10-08T06:13:00.059Z,3.33
2022-10-08T06:16:04.583Z,4.15
2022-10-08T06:19:10.362Z,3.47
2022-10-08T06:22:14.551Z,3.30
2022-10-08T06:25:17.358Z,4.78
2022-10-08T06:28:20.278Z,4.82
2022-10-08T06:31:23.349Z,4.93
2022-10-08T06:34:26.397Z,4.28
2022-10-08T06:37:30.554Z,3.75
2022-10-08T06:40:38.893Z,3.45
2022-10-08T06:43:41.702Z,3.97
2022-10-08T06:46:44.658Z,3.60
2022-10-08T06:49:47.530Z,4.57
2022-10-08T06:52:51.720Z,5.53
2022-10-08T06:55:57.835Z,3.42
2022-10-08T06:59:00.690Z,4.95
2022-10-08T07:02:03.564Z,4.70
2022-10-08T07:05:07.510Z,5.65
2022-10-08T07:08:11.682Z,6.18
2022-10-08T07:11:16.446Z,4.70
2022-10-08T07:14:19.282Z,3.60
2022-10-08T07:17:22.614Z,4.60
2022-10-08T07:20:25.525Z,6.38
2022-10-08T07:23:29.818Z,5.55
2022-10-08T07:26:34.490Z,4.93
2022-10-08T07:29:37.615Z,4.35
2022-10-08T07:32:40.403Z,5.68
2022-10-08T07:35:43.224Z,4.72
2022-10-08T07:38:48.035Z,5.00
2022-10-08T07:41:51.289Z,5.30
2022-10-08T07:44:54.058Z,4.82
2022-10-08T07:47:56.840Z,7.55
2022-10-08T07:51:08.514Z,13.50
2022-10-08T07:54:16.023Z,4.95
2022-10-08T07:57:18.801Z,6.45
2022-10-08T08:00:25.881Z,7.70
2022-10-08T08:03:29.133Z,6.05
2022-10-08T08:06:33.889Z,4.30
2022-10-08T08:09:38.329Z,5.45
2022-10-08T08:12:41.175Z,7.47
2022-10-08T08:15:43.936Z,5.25
2022-10-08T08:18:48.297Z,5.75
2022-10-08T08:21:51.251Z,6.88
2022-10-08T08:24:55.515Z,8.02
2022-10-08T08:27:58.361Z,8.23
2022-10-08T08:31:09.116Z,6.53
2022-10-08T08:34:14.257Z,10.63
2022-10-08T08:37:17.049Z,9.73
2022-10-08T08:40:21.244Z,8.40
2022-10-08T08:43:24.391Z,10.35
2022-10-08T08:46:29.373Z,9.13
2022-10-08T08:49:35.258Z,11.30
2022-10-08T08:52:41.224Z,11.90
2022-10-08T08:55:49.865Z,15.38
2022-10-08T08:58:59.385Z,6.75
2022-10-08T09:02:11.330Z,6.85
2022-10-08T09:05:17.092Z,7.18
2022-10-08T09:08:23.412Z,15.27
2022-10-08T09:11:30.451Z,7.35
2022-10-08T09:14:38.151Z,6.38
2022-10-08T09:17:42.974Z,9.00
2022-10-08T09:20:45.937Z,12.05
2022-10-08T09:23:49.062Z,7.50
2022-10-08T09:26:53.794Z,7.05
2022-10-08T09:29:56.682Z,10.75
2022-10-08T09:33:01.336Z,15.85
2022-10-08T09:36:04.362Z,10.65
2022-10-08T09:39:17.390Z,8.38
2022-10-08T09:42:21.520Z,13.63
2022-10-08T09:45:35.629Z,12.60
2022-10-08T09:48:39.537Z,10.73
2022-10-08T09:51:43.289Z,5.78
2022-10-08T09:54:49.408Z,14.48
2022-10-08T09:58:00.325Z,20.90
2022-10-08T10:01:07.520Z,58.90
2022-10-08T10:04:20.742Z,33.22
2022-10-08T10:07:24.334Z,37.53
2022-10-08T10:10:31.263Z,67.75
2022-10-08T10:13:38.559Z,30.40
2022-10-08T10:16:44.592Z,33.35
2022-10-08T10:19:54.951Z,19.88
2022-10-08T10:23:01.193Z,22.70
2022-10-08T10:26:08.619Z,18.92
2022-10-08T10:29:17.035Z,16.65
2022-10-08T10:32:23.968Z,14.77
2022-10-08T10:35:29.299Z,11.50
2022-10-08T10:38:40.754Z,15.98
2022-10-08T10:41:51.701Z,13.25
2022-10-08T10:44:58.399Z,25.27
2022-10-08T10:48:01.436Z,85.20
2022-10-08T10:51:18.392Z,49.47
2022-10-08T10:54:35.515Z,31.35
2022-10-08T10:57:53.563Z,28.05
2022-10-08T11:01:05.053Z,19.42
2022-10-08T11:04:16.242Z,15.07
2022-10-08T11:07:53.754Z,18.90
2022-10-08T11:11:10.434Z,10.52
2022-10-08T11:14:27.980Z,11.38
2022-10-08T11:17:44.785Z,8.60
2022-10-08T11:21:02.564Z,11.82
2022-10-08T11:24:23.479Z,12.65
2022-10-08T11:27:39.539Z,13.63
2022-10-08T11:30:48.256Z,7.60
2022-10-08T11:33:56.281Z,9.52
2022-10-08T11:37:10.018Z,9.55
2022-10-08T11:40:21.640Z,5.55
2022-10-08T11:43:31.992Z,10.30
2022-10-08T11:46:36.702Z,6.95
2022-10-08T11:49:55.051Z,8.82
2022-10-08T11:53:14.924Z,7.18
2022-10-08T11:56:20.605Z,7.45
2022-10-08T11:59:32.237Z,5.95
2022-10-08T12:02:38.437Z,8.18
2022-10-08T12:05:50.163Z,6.53
2022-10-08T12:08:56.811Z,6.88
2022-10-08T12:11:59.612Z,8.07
2022-10-08T12:15:02.497Z,7.03
2022-10-08T12:18:52.884Z,6.57
2022-10-08T12:21:57.099Z,7.88
2022-10-08T12:25:00.288Z,18.52
2022-10-08T12:28:54.801Z,14.05
2022-10-08T12:32:02.942Z,12.85
2022-10-08T12:35:06.118Z,7.97
2022-10-08T12:38:25.202Z,21.55
2022-10-08T12:41:31.151Z,13.15
2022-10-08T12:44:47.062Z,7.90
2022-10-08T12:48:00.265Z,14.23
2022-10-08T12:51:25.906Z,8.60
2022-10-08T12:54:31.764Z,9.52
2022-10-08T12:57:37.820Z,7.07
2022-10-08T13:00:40.895Z,8.32
2022-10-08T13:03:43.782Z,8.70
2022-10-08T13:06:47.383Z,6.85
2022-10-08T13:09:55.964Z,7.68
2022-10-08T13:13:03.556Z,8.02
2022-10-08T13:16:08.615Z,5.45
2022-10-08T13:19:18.765Z,6.10
2022-10-08T13:22:26.944Z,8.35
2022-10-08T13:25:36.314Z,4.85
2022-10-08T13:28:59.360Z,7.60
2022-10-08T13:32:04.823Z,6.47
2022-10-08T13:35:22.911Z,7.47
2022-10-08T13:38:28.372Z,8.77
2022-10-08T13:41:32.562Z,9.35
2022-10-08T13:44:37.613Z,8.07
2022-10-08T13:47:40.400Z,7.72
2022-10-08T13:50:45.037Z,11.43
2022-10-08T13:53:47.982Z,5.53
2022-10-08T13:56:52.557Z,6.05
2022-10-08T13:59:55.357Z,7.10
2022-10-08T14:02:58.406Z,8.27
2022-10-08T14:06:01.310Z,5.55
2022-10-08T14:09:06.232Z,3.50
2022-10-08T14:12:11.135Z,9.35
2022-10-08T14:15:16.284Z,7.57
2022-10-08T14:18:19.133Z,4.00
2022-10-08T14:21:22.395Z,6.72
2022-10-08T14:24:25.242Z,8.05
2022-10-08T14:27:29.814Z,7.90
2022-10-08T14:30:32.802Z,5.70
2022-10-08T14:33:35.667Z,5.32
2022-10-08T14:36:41.659Z,5.68
2022-10-08T14:39:44.710Z,5.97
2022-10-08T14:42:49.325Z,4.00
2022-10-08T14:45:52.667Z,7.35
2022-10-08T14:48:55.704Z,6.32
2022-10-08T14:51:58.499Z,5.70
2022-10-08T14:55:01.356Z,5.85
2022-10-08T14:58:05.822Z,4.85
2022-10-08T15:01:08.762Z,4.90
2022-10-08T15:04:14.828Z,5.22
2022-10-08T15:07:17.748Z,5.97
2022-10-08T15:10:20.570Z,8.30
2022-10-08T15:13:24.746Z,4.25
2022-10-08T15:16:27.700Z,5.32
2022-10-08T15:19:30.620Z,3.55
2022-10-08T15:22:33.409Z,6.38
2022-10-08T15:25:36.310Z,4.25
2022-10-08T15:28:40.628Z,6.18
2022-10-08T15:31:43.625Z,4.32
2022-10-08T15:34:46.545Z,3.28
2022-10-08T15:37:49.383Z,6.50
2022-10-08T15:40:52.339Z,7.68
2022-10-08T15:43:56.854Z,6.25
2022-10-08T15:47:02.533Z,4.55
2022-10-08T15:50:06.414Z,5.28
2022-10-08T15:53:09.256Z,6.60
2022-10-08T15:56:12.167Z,7.20
2022-10-08T15:59:16.439Z,5.50
2022-10-08T16:02:19.322Z,6.35
2022-10-08T16:05:22.212Z,4.40
2022-10-08T16:08:25.027Z,2.75
2022-10-08T16:11:29.779Z,5.93
2022-10-08T16:14:34.327Z,3.65
2022-10-08T16:17:37.311Z,3.90
2022-10-08T16:20:40.239Z,6.10
2022-10-08T16:23:43.118Z,6.90
2022-10-08T16:26:47.120Z,7.32
2022-10-08T16:29:51.752Z,5.72
2022-10-08T16:32:54.899Z,5.97
2022-10-08T16:36:02.093Z,3.80
2022-10-08T16:39:06.535Z,6.20
2022-10-08T16:42:09.376Z,5.90
2022-10-08T16:45:13.673Z,6.35
2022-10-08T16:48:16.524Z,5.50
2022-10-08T16:51:19.568Z,5.82
2022-10-08T16:54:23.231Z,9.07
2022-10-08T16:57:27.363Z,4.60
2022-10-08T17:00:32.097Z,4.70
2022-10-08T17:03:35.439Z,8.20
2022-10-08T17:06:38.851Z,6.53
2022-10-08T17:09:41.741Z,7.75
2022-10-08T17:12:45.001Z,10.68
2022-10-08T17:15:59.948Z,8.75
2022-10-08T17:19:03.681Z,16.48
2022-10-08T17:22:06.538Z,11.38
2022-10-08T17:25:10.590Z,7.22
2022-10-08T17:28:13.432Z,11.90
2022-10-08T17:31:19.350Z,7.88
2022-10-08T17:34:22.370Z,7.18
2022-10-08T17:37:25.147Z,9.15
2022-10-08T17:40:30.403Z,10.43
2022-10-08T17:43:33.208Z,9.82
2022-10-08T17:46:40.502Z,10.50
2022-10-08T17:49:43.404Z,6.53
2022-10-08T17:52:46.494Z,7.18
2022-10-08T17:55:58.639Z,9.85
2022-10-08T17:59:01.546Z,5.07
2022-10-08T18:02:05.917Z,7.55
2022-10-08T18:05:09.253Z,5.70
2022-10-08T18:08:12.065Z,8.07
2022-10-08T18:11:17.096Z,6.97
2022-10-08T18:14:20.249Z,10.90
2022-10-08T18:17:24.432Z,11.50
2022-10-08T18:20:27.289Z,9.18
2022-10-08T18:23:30.803Z,10.48
2022-10-08T18:26:37.048Z,11.27
2022-10-08T18:29:40.060Z,9.40
2022-10-08T18:32:44.242Z,9.35
2022-10-08T18:35:47.015Z,11.85
2022-10-08T18:38:55.711Z,11.73
2022-10-08T18:41:58.531Z,13.68
2022-10-08T18:45:01.391Z,11.35
2022-10-08T18:48:05.740Z,11.10
2022-10-08T18:51:10.792Z,13.93
2022-10-08T18:54:13.883Z,11.20
2022-10-08T18:57:16.665Z,11.68
2022-10-08T19:00:19.591Z,11.27
2022-10-08T19:03:23.858Z,10.02
2022-10-08T19:06:28.833Z,11.18
2022-10-08T19:09:31.633Z,12.52
2022-10-08T19:12:34.416Z,10.60
2022-10-08T19:15:37.740Z,12.57
2022-10-08T19:18:43.355Z,8.95
2022-10-08T19:21:46.760Z,15.48
2022-10-08T19:24:49.912Z,13.05
2022-10-08T19:27:52.768Z,12.60
2022-10-08T19:30:55.681Z,15.90
2022-10-08T19:34:01.362Z,13.35
2022-10-08T19:37:04.238Z,10.77
2022-10-08T19:40:07.582Z,15.55
2022-10-08T19:43:10.486Z,13.07
2022-10-08T19:46:13.480Z,13.85
2022-10-08T19:49:18.140Z,12.27
2022-10-08T19:52:21.151Z,11.60
2022-10-08T19:55:24.100Z,12.07
2022-10-08T19:58:26.946Z,14.82
2022-10-08T20:01:31.505Z,16.00
2022-10-08T20:04:35.837Z,12.88
2022-10-08T20:07:39.335Z,17.10
2022-10-08T20:10:42.254Z,12.60
2022-10-08T20:13:47.602Z,19.00
2022-10-08T20:16:50.672Z,16.73
2022-10-08T20:20:09.353Z,20.50
2022-10-08T20:23:18.459Z,14.63
2022-10-08T20:26:23.203Z,14.68
2022-10-08T20:29:30.730Z,10.00
2022-10-08T20:32:33.940Z,11.05
2022-10-08T20:35:38.292Z,10.68
2022-10-08T20:38:41.694Z,12.00
2022-10-08T20:41:44.858Z,21.35
2022-10-08T20:44:47.738Z,12.07
2022-10-08T20:47:50.559Z,12.52
2022-10-08T20:50:54.824Z,12.27
2022-10-08T20:53:59.814Z,10.55
2022-10-08T20:57:02.630Z,11.82
2022-10-08T21:00:06.280Z,9.85
2022-10-08T21:03:09.202Z,15.90
2022-10-08T21:06:15.519Z,11.50
2022-10-08T21:09:20.502Z,15.65
2022-10-08T21:12:23.337Z,12.70
2022-10-08T21:15:26.189Z,14.52
2022-10-08T21:18:29.262Z,14.82
2022-10-08T21:21:34.780Z,10.80
2022-10-08T21:24:37.601Z,11.75
2022-10-08T21:27:40.513Z,12.18
2022-10-08T21:30:43.368Z,10.38
2022-10-08T21:33:47.797Z,10.85
2022-10-08T21:36:52.079Z,12.02
2022-10-08T21:39:54.930Z,9.57
2022-10-08T21:42:57.930Z,10.93
2022-10-08T21:46:02.255Z,13.05
2022-10-08T21:49:07.681Z,8.60
2022-10-08T21:52:12.162Z,11.20
2022-10-08T21:55:15.072Z,9.25
2022-10-08T21:58:17.925Z,12.45
2022-10-08T22:01:23.458Z,8.55
2022-10-08T22:04:26.490Z,10.35
2022-10-08T22:07:30.690Z,11.35
2022-10-08T22:10:33.459Z,12.18
2022-10-08T22:13:36.351Z,11.27
2022-10-08T22:16:39.671Z,11.02
2022-10-08T22:19:43.018Z,10.23
2022-10-08T22:22:47.430Z,10.18
2022-10-08T22:25:54.118Z,12.23
2022-10-08T22:28:57.848Z,10.13
2022-10-08T22:32:00.803Z,7.70
2022-10-08T22:35:03.590Z,8.02
2022-10-08T22:38:07.873Z,9.63
2022-10-08T22:41:13.269Z,10.77
2022-10-08T22:44:16.178Z,8.20
2022-10-08T22:47:19.056Z,8.98
2022-10-08T22:50:21.905Z,9.70
2022-10-08T22:53:26.048Z,7.55
2022-10-08T22:56:30.845Z,8.50
2022-10-08T22:59:33.648Z,13.20
2022-10-08T23:02:36.995Z,7.18
2022-10-08T23:05:39.847Z,7.22
2022-10-08T23:08:45.042Z,8.07
2022-10-08T23:11:47.794Z,6.50
2022-10-08T23:14:50.627Z,7.38
2022-10-08T23:17:53.403Z,6.30
2022-10-08T23:20:56.283Z,8.35
2022-10-08T23:24:00.724Z,8.23
2022-10-08T23:27:07.499Z,7.07
2022-10-08T23:30:31.252Z,8.95
2022-10-08T23:33:37.891Z,8.13
2022-10-08T23:36:43.036Z,8.45
2022-10-08T23:39:47.191Z,7.70
2022-10-08T23:42:50.480Z,7.07
2022-10-08T23:45:53.504Z,5.07
2022-10-08T23:48:57.160Z,7.00
2022-10-08T23:51:59.959Z,8.07
2022-10-08T23:55:04.206Z,7.63
2022-10-08T23:58:06.991Z,5.22
